Las Vegas, Nevada
Traffic Map
Current Weather Conditions
Las Vegas, Nevada
Scattered Clouds
Scattered Clouds
31°
Feels Like: 31°
Wind Chill: 31° Ceiling: Unl
Heat Index: 31° Visibility: 10mi
Dew Point: Wind: 18mph
Humidity: 20% Direction: 210° (SSW)
Pressure: 29.92in Gusts: 29mph
Raw Report DataKLAS 252156Z 21016G25KT 10SM FEW100 FEW180 SCT250 31/05 A2992 RMK AO2 PK WND 18029/2119 SLP111 T03060050
Traffic Incident Summary
Active as of:
Severity:
Category:
InformationThere was an issue retrieving the traffic information for this location. Please try a different location or try again shortly.
Advertisements
Track Severe Weather on mobile